Time;durP1;ratioP1;P1;durP2;ratioP2;P2;SDS_P1;SDS_P2;PMS_P1;PMS_P2;Temp;Humidity;BMP_temperature;BMP_pressure;BME280_temperature;BME280_humidity;BME280_pressure;Samples;Min_cycle;Max_cycle;Signal;HPM_P1;HPM_P2
2022/07/05 00:01:03;;;;;;;10.03;9.20;;;19.00;99.90;;;;;;5040430;28;20776;-53
2022/07/05 00:03:30;;;;;;;9.20;8.50;;;18.90;99.90;;;;;;5039998;28;20414;-55
2022/07/05 00:05:58;;;;;;;10.00;9.10;;;18.90;99.90;;;;;;5040232;28;20424;-54
2022/07/05 00:08:26;;;;;;;10.83;9.83;;;18.90;99.90;;;;;;5040294;28;20444;-54
2022/07/05 00:10:53;;;;;;;10.10;9.30;;;19.00;99.90;;;;;;5040209;28;20409;-50
2022/07/05 00:13:21;;;;;;;10.20;9.30;;;19.20;99.90;;;;;;5040318;28;20412;-51
2022/07/05 00:15:48;;;;;;;10.83;9.83;;;19.30;99.90;;;;;;5039953;28;20508;-51
2022/07/05 00:18:16;;;;;;;8.93;8.23;;;19.40;99.90;;;;;;5039985;28;20454;-56
2022/07/05 00:20:43;;;;;;;10.40;9.50;;;19.30;99.90;;;;;;5040338;28;20645;-49
2022/07/05 00:23:11;;;;;;;9.00;8.30;;;19.40;99.90;;;;;;5039945;28;20442;-52
2022/07/05 00:25:38;;;;;;;8.60;7.90;;;19.30;99.90;;;;;;5040080;28;20523;-50
2022/07/05 00:28:05;;;;;;;8.47;7.83;;;19.30;99.90;;;;;;5040237;28;20408;-48
2022/07/05 00:30:33;;;;;;;9.40;8.70;;;19.40;99.90;;;;;;5039345;28;20408;-52
2022/07/05 00:33:00;;;;;;;9.40;8.60;;;19.60;99.90;;;;;;5039980;28;20434;-52
2022/07/05 00:35:30;;;;;;;8.47;7.87;;;19.60;99.90;;;;;;5039854;28;20432;-49
2022/07/05 00:37:58;;;;;;;9.70;8.70;;;19.70;99.90;;;;;;5040073;28;20429;-51
2022/07/05 00:40:25;;;;;;;8.90;8.00;;;19.50;99.90;;;;;;5039719;28;20429;-49
2022/07/05 00:42:52;;;;;;;9.13;8.43;;;19.50;99.90;;;;;;5039366;28;20576;-48
2022/07/05 00:45:20;;;;;;;10.13;9.27;;;19.30;99.90;;;;;;5039832;28;20705;-51
2022/07/05 00:47:47;;;;;;;11.53;8.37;;;19.20;99.90;;;;;;5039711;28;20785;-50
2022/07/05 00:50:15;;;;;;;8.13;7.43;;;19.40;99.90;;;;;;5039643;28;20507;-50
2022/07/05 00:52:42;;;;;;;7.30;6.80;;;19.50;99.90;;;;;;5039601;28;20721;-49
2022/07/05 00:55:09;;;;;;;9.13;8.43;;;19.60;99.90;;;;;;5039639;28;20436;-53
2022/07/05 00:57:37;;;;;;;8.60;7.70;;;19.60;99.90;;;;;;5038765;28;20467;-54
2022/07/05 01:00:05;;;;;;;8.30;7.67;;;19.40;99.90;;;;;;5039324;28;20642;-50
2022/07/05 01:02:33;;;;;;;9.47;8.43;;;19.60;99.90;;;;;;5039799;28;20437;-50
2022/07/05 01:05:00;;;;;;;8.23;7.70;;;19.60;99.90;;;;;;5039513;28;20520;-53
2022/07/05 01:07:28;;;;;;;8.63;8.03;;;19.60;99.90;;;;;;5039808;28;20411;-49
2022/07/05 01:09:56;;;;;;;8.53;7.83;;;19.40;99.90;;;;;;5039180;28;20849;-50
2022/07/05 01:12:23;;;;;;;9.30;8.60;;;19.40;99.90;;;;;;5039354;28;20641;-48
2022/07/05 01:14:51;;;;;;;9.10;8.47;;;19.30;99.90;;;;;;5039140;28;20548;-47
2022/07/05 01:17:19;;;;;;;9.60;8.73;;;19.20;99.90;;;;;;5038984;28;20482;-50
2022/07/05 01:19:46;;;;;;;9.27;8.23;;;19.10;99.90;;;;;;5039460;28;20480;-48
2022/07/05 01:22:18;;;;;;;8.00;7.40;;;19.10;99.90;;;;;;5039699;28;20480;-50
2022/07/05 01:24:47;;;;;;;8.10;7.40;;;19.10;99.90;;;;;;5038874;28;20408;-49
2022/07/05 01:27:15;;;;;;;8.03;7.27;;;19.10;99.90;;;;;;5038832;28;20558;-50
2022/07/05 01:29:42;;;;;;;7.70;7.20;;;19.30;99.90;;;;;;5039206;28;20510;-50
2022/07/05 01:32:10;;;;;;;8.90;8.00;;;19.30;99.90;;;;;;5038807;28;20440;-51
2022/07/05 01:34:41;;;;;;;8.17;7.43;;;19.40;99.90;;;;;;5038818;28;20430;-48
2022/07/05 01:37:09;;;;;;;8.27;7.57;;;19.50;99.90;;;;;;5038433;28;20580;-48
2022/07/05 01:39:37;;;;;;;10.17;9.27;;;19.60;99.90;;;;;;5038958;28;20744;-51
2022/07/05 01:42:05;;;;;;;9.03;8.23;;;19.70;99.90;;;;;;5038843;28;20441;-50
2022/07/05 01:44:32;;;;;;;9.77;8.57;;;19.70;99.90;;;;;;5039120;28;20437;-48
2022/07/05 01:47:05;;;;;;;10.90;9.70;;;19.70;99.90;;;;;;5038635;28;20440;-52
2022/07/05 01:49:41;;;;;;;10.10;9.23;;;19.50;99.90;;;;;;5039252;28;20799;-54
2022/07/05 01:52:10;;;;;;;9.30;8.53;;;19.30;99.90;;;;;;5039159;28;20475;-50
2022/07/05 01:54:38;;;;;;;8.00;7.40;;;19.30;99.90;;;;;;5042686;28;20753;-52
2022/07/05 01:57:07;;;;;;;7.53;6.93;;;19.20;99.90;;;;;;5043124;28;20641;-47
2022/07/05 01:59:35;;;;;;;8.23;7.60;;;19.30;99.90;;;;;;5043301;28;20650;-51
2022/07/05 02:02:07;;;;;;;9.20;6.50;;;19.30;99.90;;;;;;5042985;28;20528;-50
2022/07/05 02:04:36;;;;;;;7.40;6.63;;;19.30;99.90;;;;;;5043106;28;20396;-53
2022/07/05 02:07:05;;;;;;;6.83;6.23;;;19.40;99.90;;;;;;5042537;28;20430;-51
2022/07/05 02:09:32;;;;;;;8.40;7.90;;;19.30;99.90;;;;;;5042641;28;20454;-50
2022/07/05 02:12:00;;;;;;;6.77;6.33;;;19.30;99.90;;;;;;5042304;28;20429;-49
2022/07/05 02:14:27;;;;;;;7.80;7.20;;;19.30;99.90;;;;;;5042722;28;20666;-51
2022/07/05 02:16:54;;;;;;;7.90;7.30;;;19.30;99.90;;;;;;5041997;28;20447;-49
2022/07/05 02:19:22;;;;;;;7.33;6.70;;;19.20;99.90;;;;;;5042798;28;20422;-49
2022/07/05 02:21:49;;;;;;;7.70;7.00;;;19.10;99.90;;;;;;5042748;28;20465;-52
2022/07/05 02:24:16;;;;;;;7.43;6.87;;;19.00;99.90;;;;;;5042629;28;20437;-51
2022/07/05 02:26:43;;;;;;;7.83;7.23;;;19.00;99.90;;;;;;5042425;28;20432;-51
2022/07/05 02:29:10;;;;;;;7.80;6.70;;;19.00;99.90;;;;;;5042026;28;20785;-51
2022/07/05 02:31:37;;;;;;;6.50;6.00;;;19.10;99.90;;;;;;5042504;28;20430;-49
2022/07/05 02:34:04;;;;;;;8.33;6.47;;;19.10;99.90;;;;;;5042098;28;20465;-52
2022/07/05 02:36:31;;;;;;;7.87;7.27;;;19.20;99.90;;;;;;5042136;28;20457;-48
2022/07/05 02:38:58;;;;;;;7.13;6.63;;;19.30;99.90;;;;;;5042092;28;20458;-48
2022/07/05 02:41:26;;;;;;;9.70;6.70;;;19.40;99.90;;;;;;5042680;28;20433;-52
2022/07/05 02:43:53;;;;;;;7.10;6.50;;;19.60;99.90;;;;;;5042049;28;20590;-47
2022/07/05 02:46:20;;;;;;;8.27;7.60;;;19.80;99.90;;;;;;5041939;28;20682;-45
2022/07/05 02:48:47;;;;;;;7.93;7.33;;;19.70;99.90;;;;;;5041871;28;20693;-52
2022/07/05 02:51:16;;;;;;;8.70;7.90;;;19.40;99.90;;;;;;5042498;28;20438;-48
2022/07/05 02:53:43;;;;;;;8.20;7.60;;;19.30;99.90;;;;;;5042400;28;20678;-50
2022/07/05 02:56:10;;;;;;;6.90;6.30;;;19.40;99.90;;;;;;5041817;28;20499;-47
2022/07/05 02:58:38;;;;;;;7.47;6.73;;;19.50;99.90;;;;;;5041867;28;20541;-49
2022/07/05 03:01:05;;;;;;;6.90;6.30;;;19.70;99.90;;;;;;5042405;28;20426;-49
2022/07/05 03:03:32;;;;;;;7.40;6.80;;;19.60;99.90;;;;;;5041593;28;20486;-50
2022/07/05 03:06:00;;;;;;;7.30;6.60;;;19.50;99.90;;;;;;5041942;28;20431;-56
2022/07/05 03:08:27;;;;;;;6.93;6.33;;;19.40;99.90;;;;;;5045896;28;20683;-53
2022/07/05 03:10:54;;;;;;;7.00;6.50;;;19.50;99.90;;;;;;5044824;28;20455;-54
2022/07/05 03:13:21;;;;;;;9.43;8.47;;;19.30;99.90;;;;;;5045797;28;20496;-56
2022/07/05 03:15:48;;;;;;;7.03;6.43;;;19.30;99.90;;;;;;5048221;28;20424;-51
2022/07/05 03:18:15;;;;;;;7.27;6.67;;;19.20;99.90;;;;;;5049881;28;20522;-55
2022/07/05 03:20:42;;;;;;;7.70;6.87;;;19.20;99.90;;;;;;5048095;28;20408;-55
2022/07/05 03:23:10;;;;;;;7.50;6.80;;;19.20;99.90;;;;;;5049420;28;20452;-57
2022/07/05 03:25:37;;;;;;;9.40;8.40;;;19.40;99.90;;;;;;5045497;28;20432;-48
2022/07/05 03:28:04;;;;;;;8.13;7.40;;;19.60;99.90;;;;;;5042453;28;20727;-50
2022/07/05 03:30:31;;;;;;;9.07;8.37;;;19.60;99.90;;;;;;5041335;28;20826;-46
2022/07/05 03:32:58;;;;;;;7.80;7.13;;;19.80;99.90;;;;;;5041579;28;20463;-53
2022/07/05 03:35:27;;;;;;;10.53;6.67;;;19.60;99.90;;;;;;5024841;28;20428;-52
2022/07/05 03:37:54;;;;;;;7.03;6.07;;;19.50;99.90;;;;;;5041225;28;20727;-54
2022/07/05 03:40:21;;;;;;;7.07;6.50;;;19.40;99.90;;;;;;5041158;28;20809;-51
2022/07/05 03:42:51;;;;;;;9.90;7.40;;;19.30;99.90;;;;;;5041250;28;20457;-48
2022/07/05 03:45:19;;;;;;;6.40;5.90;;;19.50;99.90;;;;;;5024003;28;20457;-52
2022/07/05 03:47:46;;;;;;;6.83;6.13;;;19.80;99.90;;;;;;5041274;28;20731;-53
2022/07/05 03:50:13;;;;;;;9.53;6.97;;;19.90;99.90;;;;;;5041437;28;20448;-49
2022/07/05 03:52:40;;;;;;;7.83;7.00;;;20.10;99.90;;;;;;5041247;28;20439;-54
2022/07/05 03:55:08;;;;;;;7.00;5.90;;;20.00;99.90;;;;;;5041174;28;20529;-51
2022/07/05 03:57:35;;;;;;;7.57;6.97;;;20.00;99.90;;;;;;5041275;28;20462;-53
2022/07/05 04:00:03;;;;;;;8.33;7.53;;;20.00;99.90;;;;;;5040914;28;20408;-56
2022/07/05 04:02:30;;;;;;;6.97;6.47;;;19.90;99.90;;;;;;5040866;28;20441;-51
2022/07/05 04:05:01;;;;;;;7.60;5.70;;;19.80;99.90;;;;;;5040961;28;20456;-53
2022/07/05 04:07:28;;;;;;;6.53;5.87;;;19.70;99.90;;;;;;5040900;28;20419;-52
2022/07/05 04:09:56;;;;;;;7.83;7.03;;;19.80;99.90;;;;;;5041220;28;20462;-51
2022/07/05 04:12:23;;;;;;;6.30;5.90;;;19.70;99.90;;;;;;5041019;28;20408;-52
2022/07/05 04:14:50;;;;;;;6.57;6.07;;;19.70;99.90;;;;;;5040491;28;20637;-55
2022/07/05 04:17:18;;;;;;;7.03;6.43;;;19.80;99.90;;;;;;5040617;28;20429;-56
2022/07/05 04:19:45;;;;;;;6.70;6.20;;;19.80;99.90;;;;;;5040708;28;20768;-53
2022/07/05 04:22:12;;;;;;;7.93;7.30;;;19.90;99.90;;;;;;5040985;28;20760;-55
2022/07/05 04:27:26;;;;;;;13.20;6.60;;;19.50;99.90;;;;;;5040482;28;20484;-54
2022/07/05 04:29:53;;;;;;;8.23;7.63;;;19.40;99.90;;;;;;5040489;28;20465;-55
2022/07/05 04:32:20;;;;;;;9.10;8.20;;;19.00;99.90;;;;;;5040124;28;20415;-49
2022/07/05 04:34:47;;;;;;;8.37;7.70;;;18.80;99.90;;;;;;5040227;28;20448;-52
2022/07/05 04:37:14;;;;;;;7.53;6.93;;;18.60;99.90;;;;;;5040485;28;20598;-54
2022/07/05 04:39:42;;;;;;;7.03;6.43;;;18.60;99.90;;;;;;5040854;28;20480;-52
2022/07/05 04:42:10;;;;;;;9.23;7.30;;;18.60;99.90;;;;;;5040701;28;20423;-51
2022/07/05 04:44:37;;;;;;;7.23;6.73;;;18.70;99.90;;;;;;5040385;28;20543;-55
2022/07/05 04:47:04;;;;;;;8.00;7.40;;;18.80;99.90;;;;;;5040177;28;20822;-50
2022/07/05 04:49:31;;;;;;;9.70;7.70;;;18.80;99.90;;;;;;5040523;28;20695;-54
2022/07/05 04:51:59;;;;;;;7.03;6.50;;;18.80;99.90;;;;;;5039719;28;20437;-56
2022/07/05 04:54:26;;;;;;;8.87;8.00;;;18.90;99.90;;;;;;5040044;28;20445;-51
2022/07/05 04:56:53;;;;;;;8.30;7.50;;;19.00;99.90;;;;;;5039955;28;20791;-55
2022/07/05 04:59:24;;;;;;;8.00;7.40;;;19.10;99.90;;;;;;5039692;28;20449;-51
2022/07/05 05:01:52;;;;;;;8.17;7.60;;;19.00;99.90;;;;;;5038739;28;20433;-50
2022/07/05 05:04:20;;;;;;;7.50;6.97;;;19.10;99.90;;;;;;5039894;28;20752;-49
2022/07/05 05:06:47;;;;;;;7.97;7.27;;;19.10;99.90;;;;;;5039321;28;20460;-54
2022/07/05 05:09:14;;;;;;;9.27;8.57;;;19.10;99.90;;;;;;5039640;28;20443;-50
2022/07/05 05:11:42;;;;;;;8.47;7.77;;;19.10;99.90;;;;;;5039859;28;20429;-51
2022/07/05 05:14:09;;;;;;;8.37;7.67;;;19.10;99.90;;;;;;5040009;28;20611;-50
2022/07/05 05:16:37;;;;;;;7.07;6.50;;;19.10;99.90;;;;;;5040235;28;20450;-50
2022/07/05 05:19:04;;;;;;;9.73;8.83;;;19.20;99.90;;;;;;5039965;28;20691;-53
2022/07/05 05:21:32;;;;;;;7.93;7.27;;;19.30;99.90;;;;;;5040162;28;20408;-55
2022/07/05 05:23:59;;;;;;;9.67;8.83;;;19.40;99.90;;;;;;5039962;28;20437;-51
2022/07/05 05:26:27;;;;;;;7.87;7.27;;;19.20;99.90;;;;;;5039785;28;20802;-52
2022/07/05 05:28:54;;;;;;;8.43;7.70;;;19.10;99.90;;;;;;5039490;28;20443;-52
2022/07/05 05:31:22;;;;;;;8.30;7.60;;;19.10;99.90;;;;;;5040212;28;20672;-53
2022/07/05 05:33:49;;;;;;;9.00;8.20;;;19.20;99.90;;;;;;5040096;28;20415;-56
2022/07/05 05:36:18;;;;;;;8.17;7.47;;;19.20;99.90;;;;;;5039369;28;20570;-52
2022/07/05 05:38:45;;;;;;;8.10;7.50;;;19.30;99.90;;;;;;5039773;28;20433;-54
2022/07/05 05:41:17;;;;;;;9.00;8.10;;;19.50;99.90;;;;;;5039595;28;20481;-55
2022/07/05 05:43:44;;;;;;;8.63;7.93;;;19.70;99.90;;;;;;5039313;28;20589;-50
2022/07/05 05:46:11;;;;;;;9.57;8.17;;;19.70;99.90;;;;;;5039735;28;20439;-51
2022/07/05 05:48:38;;;;;;;9.90;8.17;;;19.60;99.90;;;;;;5039504;28;20429;-53
2022/07/05 05:51:06;;;;;;;10.40;9.43;;;19.60;99.90;;;;;;5039814;28;20810;-50
2022/07/05 05:53:33;;;;;;;7.33;6.73;;;19.70;99.90;;;;;;5039394;28;20624;-53
2022/07/05 05:56:00;;;;;;;8.23;7.53;;;19.90;99.90;;;;;;5039948;28;20436;-52
2022/07/05 05:58:27;;;;;;;9.63;8.83;;;20.10;99.90;;;;;;5039866;28;20438;-52
2022/07/05 06:00:55;;;;;;;7.87;7.27;;;20.30;99.90;;;;;;5039795;28;20491;-52
2022/07/05 06:03:26;;;;;;;7.07;6.47;;;20.50;99.90;;;;;;5039983;28;20659;-49
2022/07/05 06:05:54;;;;;;;8.43;7.63;;;20.80;99.90;;;;;;5038888;28;20436;-54
2022/07/05 06:08:23;;;;;;;8.90;8.10;;;21.00;99.90;;;;;;5039742;28;20446;-54
2022/07/05 06:10:50;;;;;;;8.70;8.10;;;21.20;99.90;;;;;;5039608;28;20474;-52
2022/07/05 06:13:28;;;;;;;9.13;8.23;;;21.50;99.90;;;;;;5039734;28;20745;-53
2022/07/05 06:15:55;;;;;;;7.70;7.20;;;21.80;99.90;;;;;;5039596;28;20505;-55
2022/07/05 06:18:22;;;;;;;8.13;7.30;;;21.90;99.90;;;;;;5039537;28;20401;-55
2022/07/05 06:20:49;;;;;;;8.00;7.30;;;21.80;99.90;;;;;;5039696;28;20555;-55
2022/07/05 06:23:17;;;;;;;8.30;7.50;;;21.80;99.90;;;;;;5039549;28;20442;-51
2022/07/05 06:25:44;;;;;;;8.57;7.87;;;21.40;99.90;;;;;;5039503;28;20666;-53
2022/07/05 06:28:12;;;;;;;8.77;7.87;;;20.90;99.90;;;;;;5039535;28;20612;-51
2022/07/05 06:30:39;;;;;;;8.03;7.40;;;20.70;99.90;;;;;;5038869;28;20503;-53
2022/07/05 06:33:07;;;;;;;21.53;19.60;;;20.50;99.90;;;;;;5039169;28;20408;-53
2022/07/05 06:35:37;;;;;;;15.00;13.87;;;20.10;99.90;;;;;;5039044;28;20466;-53
2022/07/05 06:38:09;;;;;;;16.87;15.17;;;19.90;99.90;;;;;;5039735;28;20599;-53
2022/07/05 06:40:38;;;;;;;18.27;16.37;;;19.80;99.90;;;;;;5042052;28;20412;-57
2022/07/05 06:43:08;;;;;;;13.03;11.70;;;19.80;99.90;;;;;;5043074;28;20458;-57
2022/07/05 06:45:36;;;;;;;14.20;12.97;;;19.80;99.90;;;;;;5042479;28;20430;-57
2022/07/05 06:48:09;;;;;;;16.27;14.77;;;19.70;99.90;;;;;;5042769;28;20724;-52
2022/07/05 06:50:38;;;;;;;15.00;13.70;;;20.00;99.90;;;;;;5042019;28;20669;-56
2022/07/05 06:53:06;;;;;;;18.17;14.40;;;20.00;99.90;;;;;;5041959;28;20465;-58
2022/07/05 06:55:34;;;;;;;15.87;14.37;;;20.20;99.90;;;;;;5041800;28;20477;-58
2022/07/05 06:58:06;;;;;;;13.03;11.83;;;20.30;99.90;;;;;;5041102;28;20438;-56
2022/07/05 07:00:41;;;;;;;13.30;12.03;;;20.20;99.90;;;;;;5041260;28;20399;-57
2022/07/05 07:03:29;;;;;;;11.90;10.90;;;20.20;99.90;;;;;;5041283;28;20573;-59
2022/07/05 07:06:17;;;;;;;11.17;10.17;;;20.20;99.90;;;;;;5040742;28;20685;-55
2022/07/05 07:11:30;;;;;;;9.90;9.00;;;20.30;99.90;;;;;;5041378;28;20521;-57
2022/07/05 07:13:58;;;;;;;11.43;10.33;;;20.20;99.90;;;;;;5040529;28;20640;-56
2022/07/05 07:16:25;;;;;;;11.30;10.10;;;20.20;99.90;;;;;;5040885;28;20712;-57
2022/07/05 07:18:53;;;;;;;10.20;9.27;;;20.00;99.90;;;;;;5041172;28;20430;-58
2022/07/05 07:21:40;;;;;;;9.40;8.60;;;19.80;99.90;;;;;;5041222;28;20412;-58
2022/07/05 07:24:08;;;;;;;7.57;7.07;;;19.80;99.90;;;;;;5041847;28;20753;-55
2022/07/05 07:29:21;;;;;;;9.83;8.93;;;19.70;99.90;;;;;;5041392;28;20429;-57
2022/07/05 07:31:48;;;;;;;12.57;9.53;;;19.70;99.90;;;;;;5041386;28;20831;-54
2022/07/05 07:34:16;;;;;;;9.20;8.43;;;19.50;99.90;;;;;;5041027;28;20802;-56
2022/07/05 07:36:43;;;;;;;9.90;7.90;;;19.40;99.90;;;;;;5040481;28;20461;-56
2022/07/05 07:39:11;;;;;;;9.40;8.60;;;19.30;99.90;;;;;;5040734;28;20486;-56
2022/07/05 07:41:38;;;;;;;8.57;7.70;;;19.30;99.90;;;;;;5040695;28;20412;-55
2022/07/05 07:44:05;;;;;;;9.80;8.90;;;19.30;99.90;;;;;;5040509;28;20718;-56
2022/07/05 07:46:32;;;;;;;9.30;8.47;;;19.50;99.90;;;;;;5040436;28;20423;-51
2022/07/05 07:49:00;;;;;;;9.00;8.30;;;19.40;99.90;;;;;;5040410;28;20497;-56
2022/07/05 07:51:28;;;;;;;10.00;9.13;;;19.40;99.90;;;;;;5039762;28;20792;-54
2022/07/05 07:53:59;;;;;;;9.43;8.47;;;19.40;99.90;;;;;;5040590;28;20432;-51
2022/07/05 07:56:28;;;;;;;10.23;9.33;;;19.10;99.90;;;;;;5040157;28;20420;-57
2022/07/05 07:58:55;;;;;;;10.63;9.53;;;18.90;99.90;;;;;;5040260;28;20404;-55
2022/07/05 08:01:23;;;;;;;12.17;10.07;;;18.80;99.90;;;;;;5040731;28;20491;-55
2022/07/05 08:03:50;;;;;;;9.93;9.13;;;18.80;99.90;;;;;;5040351;28;20789;-58
2022/07/05 08:06:18;;;;;;;9.73;8.97;;;18.90;99.90;;;;;;5039882;28;20539;-52
2022/07/05 08:08:45;;;;;;;11.23;10.20;;;19.00;99.90;;;;;;5039908;28;20411;-50
2022/07/05 08:11:13;;;;;;;11.00;10.00;;;19.00;99.90;;;;;;5039697;28;20510;-56
2022/07/05 08:13:42;;;;;;;7.17;6.57;;;18.70;99.90;;;;;;5040165;28;20410;-57
2022/07/05 08:16:10;;;;;;;5.20;4.80;;;18.40;99.90;;;;;;5039681;28;20611;-53
2022/07/05 08:21:35;;;;;;;6.70;5.07;;;17.70;99.90;;;;;;5039475;28;20425;-54
2022/07/05 08:24:04;;;;;;;5.83;5.33;;;17.60;99.90;;;;;;5039333;28;20423;-56
2022/07/05 08:26:32;;;;;;;7.03;5.43;;;17.60;99.90;;;;;;5039437;28;20789;-53
2022/07/05 08:29:03;;;;;;;5.00;4.60;;;17.70;99.90;;;;;;5038588;28;20411;-55
2022/07/05 08:31:38;;;;;;;4.70;4.20;;;17.80;99.90;;;;;;5039488;28;20443;-56
2022/07/05 08:34:06;;;;;;;7.83;5.90;;;17.50;99.90;;;;;;5039420;28;20418;-56
2022/07/05 08:36:33;;;;;;;6.73;4.67;;;17.50;99.90;;;;;;5039622;28;20782;-55
2022/07/05 08:39:00;;;;;;;5.70;3.20;;;17.30;99.90;;;;;;5039293;28;20429;-54
2022/07/05 08:41:29;;;;;;;3.83;3.53;;;17.00;99.90;;;;;;5039455;28;20680;-57
2022/07/05 08:43:57;;;;;;;4.50;4.10;;;16.80;99.90;;;;;;5039403;28;20444;-58
2022/07/05 08:46:25;;;;;;;3.50;3.20;;;16.60;99.90;;;;;;5039679;28;20449;-51
2022/07/05 08:48:55;;;;;;;4.60;4.27;;;16.60;99.90;;;;;;5039328;28;20462;-54
2022/07/05 08:51:23;;;;;;;5.73;4.00;;;16.60;99.90;;;;;;5039398;28;20476;-54
2022/07/05 08:53:52;;;;;;;5.20;4.80;;;16.60;99.90;;;;;;5039467;28;20435;-55
2022/07/05 08:56:20;;;;;;;5.03;4.50;;;16.60;99.90;;;;;;5039845;28;20534;-54
2022/07/05 08:59:00;;;;;;;5.47;5.03;;;16.60;99.90;;;;;;5040133;28;20700;-56
2022/07/05 09:01:31;;;;;;;5.60;5.20;;;16.80;99.90;;;;;;5022413;28;20511;-53
2022/07/05 09:04:02;;;;;;;5.37;4.97;;;17.00;99.90;;;;;;5039146;28;20436;-53
2022/07/05 09:06:30;;;;;;;5.73;5.23;;;17.20;99.90;;;;;;5039264;28;20793;-51
2022/07/05 09:08:59;;;;;;;6.10;5.60;;;17.20;99.90;;;;;;5039576;28;20439;-54
2022/07/05 09:11:48;;;;;;;9.73;5.63;;;17.30;99.90;;;;;;5038396;28;20496;-55
2022/07/05 09:14:35;;;;;;;9.93;7.13;;;17.40;99.90;;;;;;5038567;28;20487;-54
2022/07/05 09:17:04;;;;;;;5.90;5.30;;;17.60;99.90;;;;;;5038546;28;20771;-56
2022/07/05 09:19:32;;;;;;;6.63;6.03;;;17.50;99.90;;;;;;5039392;28;20425;-51
2022/07/05 09:22:05;;;;;;;5.60;5.20;;;17.30;99.90;;;;;;5039812;28;20527;-53
2022/07/05 09:24:45;;;;;;;10.77;7.07;;;17.10;99.90;;;;;;5040738;28;20441;-51
2022/07/05 09:27:13;;;;;;;7.30;6.70;;;17.20;99.90;;;;;;5040796;28;20437;-52
2022/07/05 09:29:54;;;;;;;7.17;6.53;;;17.30;99.90;;;;;;5041079;28;20406;-51
2022/07/05 09:32:31;;;;;;;6.90;6.30;;;17.70;99.90;;;;;;5039019;28;20442;-49
2022/07/05 09:37:44;;;;;;;9.37;8.47;;;17.80;99.90;;;;;;5016222;28;20462;-58
2022/07/05 09:40:11;;;;;;;7.73;6.57;;;17.90;99.90;;;;;;5019081;28;20440;-56
2022/07/05 09:42:46;;;;;;;7.17;6.57;;;18.00;99.90;;;;;;5018890;28;20499;-59
2022/07/05 09:45:25;;;;;;;6.53;6.03;;;18.10;99.90;;;;;;5018847;28;20464;-57
2022/07/05 09:47:55;;;;;;;6.53;5.93;;;18.20;99.90;;;;;;5018728;28;20441;-57
2022/07/05 09:50:43;;;;;;;6.63;6.00;;;18.30;99.90;;;;;;5003365;28;20473;-59
2022/07/05 09:53:50;;;;;;;7.13;6.63;;;18.30;99.90;;;;;;5019029;28;20493;-59
2022/07/05 09:56:26;;;;;;;6.80;6.07;;;18.30;99.90;;;;;;5019220;28;20513;-61
2022/07/05 09:58:53;;;;;;;6.97;5.93;;;18.40;99.90;;;;;;5019599;28;20414;-60
2022/07/05 10:01:28;;;;;;;6.57;5.87;;;18.50;99.90;;;;;;5019412;28;20471;-60
2022/07/05 10:03:58;;;;;;;5.30;4.90;;;18.50;99.90;;;;;;5019756;28;20439;-60
2022/07/05 10:06:26;;;;;;;6.80;5.70;;;18.50;99.90;;;;;;5018420;28;20488;-61
2022/07/05 10:08:54;;;;;;;5.50;5.03;;;18.30;99.90;;;;;;5018758;28;20472;-60
2022/07/05 10:11:26;;;;;;;7.13;6.33;;;18.10;99.90;;;;;;5018967;28;20548;-59
2022/07/05 10:13:57;;;;;;;10.57;8.47;;;18.00;99.90;;;;;;5020480;28;20513;-60
2022/07/05 10:16:25;;;;;;;10.63;6.90;;;17.90;99.90;;;;;;5022506;28;20452;-61
2022/07/05 10:18:59;;;;;;;5.77;5.20;;;17.90;99.90;;;;;;5022071;28;20410;-61
2022/07/05 10:21:27;;;;;;;5.67;5.27;;;18.10;99.90;;;;;;5022435;28;20415;-59
2022/07/05 10:23:55;;;;;;;5.93;5.40;;;18.00;99.90;;;;;;5022901;28;20415;-60
2022/07/05 10:26:24;;;;;;;6.63;5.10;;;18.00;99.90;;;;;;5022524;28;20467;-57
2022/07/05 10:28:53;;;;;;;4.57;4.27;;;18.10;99.90;;;;;;5022592;28;20617;-59
2022/07/05 10:31:29;;;;;;;4.00;3.70;;;18.10;99.90;;;;;;5022598;28;20523;-59
2022/07/05 10:34:07;;;;;;;5.50;5.00;;;18.30;99.90;;;;;;5022239;28;20753;-58
2022/07/05 10:36:54;;;;;;;3.90;3.60;;;18.70;99.90;;;;;;5021754;28;20512;-59
2022/07/05 10:39:25;;;;;;;3.20;2.90;;;18.60;99.90;;;;;;5022156;28;20583;-59
2022/07/05 10:41:54;;;;;;;3.50;3.27;;;18.40;99.90;;;;;;5022118;28;20426;-58
2022/07/05 10:44:34;;;;;;;4.30;4.00;;;18.70;99.90;;;;;;5022148;28;20409;-60
2022/07/05 10:47:11;;;;;;;4.90;4.50;;;19.10;99.90;;;;;;5022183;28;20616;-60
2022/07/05 10:49:40;;;;;;;5.27;4.80;;;19.50;99.90;;;;;;5022404;28;20434;-60
2022/07/05 10:52:24;;;;;;;4.10;3.70;;;20.10;99.90;;;;;;5021984;28;20480;-59
2022/07/05 10:55:16;;;;;;;4.30;3.83;;;20.90;99.90;;;;;;5005107;28;20437;-57
2022/07/05 10:57:44;;;;;;;3.50;3.20;;;21.50;99.90;;;;;;5022018;28;20581;-61
2022/07/05 11:00:12;;;;;;;4.57;3.37;;;21.90;99.90;;;;;;5021707;28;20408;-59
2022/07/05 11:02:39;;;;;;;5.10;4.30;;;22.20;99.90;;;;;;5021831;28;20808;-58
2022/07/05 11:05:07;;;;;;;4.87;4.50;;;22.00;99.90;;;;;;5021871;28;20640;-58
2022/07/05 11:07:57;;;;;;;5.50;5.00;;;21.90;99.90;;;;;;5022008;28;20471;-61
2022/07/05 11:10:25;;;;;;;4.40;4.10;;;22.10;99.90;;;;;;5021830;28;20441;-59
2022/07/05 11:12:52;;;;;;;4.70;4.30;;;22.20;99.90;;;;;;5021902;28;20454;-60
2022/07/05 11:15:19;;;;;;;4.20;3.90;;;22.50;99.90;;;;;;5022100;28;20456;-60
2022/07/05 11:17:47;;;;;;;3.57;3.27;;;22.50;99.90;;;;;;5022763;28;20410;-60
2022/07/05 11:20:32;;;;;;;5.80;3.50;;;22.40;99.90;;;;;;5021432;28;20593;-59
2022/07/05 11:23:04;;;;;;;4.30;3.40;;;22.30;99.90;;;;;;5021732;28;20406;-56
2022/07/05 11:25:33;;;;;;;3.50;3.30;;;22.00;99.90;;;;;;5020324;28;20441;-56
2022/07/05 11:28:06;;;;;;;3.07;2.87;;;22.10;99.90;;;;;;5021523;28;20483;-57
2022/07/05 11:30:54;;;;;;;3.83;3.47;;;22.30;99.90;;;;;;5021852;28;20430;-57
2022/07/05 11:33:33;;;;;;;3.77;3.47;;;22.40;99.90;;;;;;5004707;28;20440;-58
2022/07/05 11:36:04;;;;;;;3.87;3.33;;;22.20;99.90;;;;;;5021143;28;20430;-58
2022/07/05 11:38:31;;;;;;;4.10;3.57;;;21.90;99.90;;;;;;5021167;28;20439;-55
2022/07/05 11:41:18;;;;;;;3.93;3.63;;;21.60;99.90;;;;;;5006887;28;20402;-57
2022/07/05 11:44:03;;;;;;;3.90;3.60;;;21.30;99.90;;;;;;5021545;28;20443;-59
2022/07/05 11:46:32;;;;;;;4.03;3.77;;;21.70;99.90;;;;;;5021648;28;20426;-60
2022/07/05 11:49:19;;;;;;;3.53;3.33;;;22.10;99.90;;;;;;5021862;28;20624;-59
2022/07/05 11:51:59;;;;;;;4.77;3.57;;;22.90;99.90;;;;;;5021329;28;20458;-61
2022/07/05 11:54:33;;;;;;;4.30;3.90;;;23.90;99.90;;;;;;5020966;28;20769;-61
2022/07/05 11:57:01;;;;;;;3.73;3.50;;;24.50;99.90;;;;;;5021115;28;20433;-59
2022/07/05 11:59:29;;;;;;;4.43;4.03;;;24.90;99.90;;;;;;5022105;28;20478;-59
2022/07/05 12:01:56;;;;;;;3.90;3.60;;;25.10;99.90;;;;;;5021244;28;20488;-58
2022/07/05 12:04:29;;;;;;;3.77;3.50;;;25.20;99.90;;;;;;5021909;28;20472;-59
2022/07/05 12:06:57;;;;;;;3.53;3.23;;;25.20;99.90;;;;;;5021039;28;20613;-59
2022/07/05 12:15:19;;;;;;;3.57;3.37;;;25.10;99.90;;;;;;5020688;28;20434;-58
2022/07/05 12:17:49;;;;;;;4.03;3.40;;;25.50;99.90;;;;;;5021018;28;20597;-60
2022/07/05 12:20:24;;;;;;;3.90;3.60;;;25.20;99.90;;;;;;5021344;28;20488;-59
2022/07/05 12:22:52;;;;;;;6.23;4.27;;;24.80;99.90;;;;;;5021119;28;20641;-59
2022/07/05 12:25:21;;;;;;;3.83;3.50;;;24.40;99.90;;;;;;5021005;28;20440;-60
2022/07/05 12:27:50;;;;;;;4.13;2.67;;;24.10;99.90;;;;;;5020325;28;20452;-59
2022/07/05 12:30:19;;;;;;;3.13;1.90;;;23.70;99.90;;;;;;5020205;28;20545;-61
2022/07/05 12:33:05;;;;;;;4.23;2.23;;;23.30;99.90;;;;;;5020072;28;20824;-60
2022/07/05 12:35:38;;;;;;;2.97;2.77;;;23.60;99.90;;;;;;5020873;28;20481;-59
2022/07/05 12:38:19;;;;;;;3.60;3.30;;;23.90;99.90;;;;;;5019156;28;20409;-59
2022/07/05 12:40:56;;;;;;;4.87;2.77;;;23.50;99.90;;;;;;5020179;28;20426;-60
2022/07/05 12:43:23;;;;;;;2.73;2.53;;;23.40;99.90;;;;;;5021352;28;20636;-59
2022/07/05 12:46:02;;;;;;;4.47;3.93;;;23.60;99.90;;;;;;5020272;28;20427;-59
2022/07/05 12:48:35;;;;;;;5.63;3.50;;;23.50;99.90;;;;;;5020438;28;20434;-60
2022/07/05 12:51:04;;;;;;;2.83;2.63;;;23.60;99.90;;;;;;5020646;28;20396;-60
2022/07/05 12:59:56;;;;;;;6.20;5.60;;;23.00;99.90;;;;;;5020495;28;20401;-58
2022/07/05 13:02:46;;;;;;;5.53;5.13;;;23.10;99.90;;;;;;5020576;28;20411;-59
2022/07/05 13:05:21;;;;;;;4.47;4.17;;;23.50;99.90;;;;;;5020267;28;20601;-59
2022/07/05 13:07:54;;;;;;;5.10;4.60;;;23.70;99.90;;;;;;5019884;28;20442;-58
2022/07/05 13:10:25;;;;;;;3.03;2.83;;;23.50;99.90;;;;;;5020406;28;20413;-61
2022/07/05 13:12:53;;;;;;;4.10;2.33;;;23.50;99.90;;;;;;5019849;28;20684;-60
2022/07/05 13:15:20;;;;;;;2.50;2.30;;;23.30;99.90;;;;;;5019996;28;20508;-61
2022/07/05 13:17:48;;;;;;;2.70;2.50;;;23.30;99.90;;;;;;5019516;28;20426;-59
2022/07/05 13:20:17;;;;;;;4.07;2.63;;;23.10;99.90;;;;;;5019672;28;20700;-58
2022/07/05 13:22:48;;;;;;;2.67;2.47;;;23.20;99.90;;;;;;5019914;28;20444;-60
2022/07/05 13:25:16;;;;;;;2.20;2.10;;;23.50;99.90;;;;;;5019821;28;20405;-60